createdAt,value
2018-08-20T00:00:22.756Z,18.61
2018-08-20T00:01:22.858Z,18.64
2018-08-20T00:02:22.955Z,18.65
2018-08-20T00:03:23.054Z,18.61
2018-08-20T00:04:23.152Z,18.64
2018-08-20T00:05:23.251Z,18.67
2018-08-20T00:06:23.352Z,18.61
2018-08-20T00:07:23.451Z,18.65
2018-08-20T00:08:23.549Z,18.62
2018-08-20T00:09:23.647Z,18.61
2018-08-20T00:10:23.745Z,18.68
2018-08-20T00:11:23.845Z,18.64
2018-08-20T00:12:23.943Z,18.57
2018-08-20T00:13:24.043Z,18.57
2018-08-20T00:14:24.141Z,18.55
2018-08-20T00:15:24.244Z,18.55
2018-08-20T00:16:24.340Z,18.49
2018-08-20T00:17:24.440Z,18.52
2018-08-20T00:18:24.537Z,18.46
2018-08-20T00:19:24.628Z,18.39
2018-08-20T00:20:24.744Z,18.36
2018-08-20T00:21:24.829Z,18.37
2018-08-20T00:22:24.928Z,18.40
2018-08-20T00:23:25.026Z,18.43
2018-08-20T00:24:25.194Z,18.39
2018-08-20T00:25:25.223Z,18.36
2018-08-20T00:26:25.323Z,18.37
2018-08-20T00:27:25.420Z,18.42
2018-08-20T00:28:25.523Z,18.47
2018-08-20T00:29:25.622Z,18.40
2018-08-20T00:30:25.720Z,18.42
2018-08-20T00:31:25.818Z,18.34
2018-08-20T00:32:25.934Z,18.29
2018-08-20T00:33:26.038Z,18.36
2018-08-20T00:34:26.144Z,18.34
2018-08-20T00:35:26.243Z,18.21
2018-08-20T00:36:26.342Z,18.22
2018-08-20T00:37:26.441Z,18.18
2018-08-20T00:38:26.541Z,18.15
2018-08-20T00:39:26.640Z,18.21
2018-08-20T00:40:26.738Z,18.15
2018-08-20T00:41:26.839Z,18.09
2018-08-20T00:42:26.934Z,18.13
2018-08-20T00:43:27.036Z,18.10
2018-08-20T00:44:27.131Z,18.13
2018-08-20T00:45:27.230Z,18.12
2018-08-20T00:46:27.338Z,18.12
2018-08-20T00:47:27.434Z,18.10
2018-08-20T00:48:27.535Z,18.04
2018-08-20T00:49:27.638Z,18.07
2018-08-20T00:50:27.737Z,18.12
2018-08-20T00:51:27.833Z,18.15
2018-08-20T00:52:27.929Z,18.09
2018-08-20T00:53:28.026Z,18.02
2018-08-20T00:54:28.127Z,18.03
2018-08-20T00:55:28.226Z,18.07
2018-08-20T00:56:28.327Z,18.07
2018-08-20T00:57:28.425Z,18.06
2018-08-20T00:58:28.529Z,17.99
2018-08-20T00:59:28.624Z,18.06
2018-08-20T01:00:28.720Z,17.91
2018-08-20T01:01:28.821Z,17.87
2018-08-20T01:02:28.919Z,17.97
2018-08-20T01:03:29.021Z,17.94
2018-08-20T01:04:29.119Z,17.85
2018-08-20T01:05:29.218Z,17.85
2018-08-20T01:06:29.316Z,17.85
2018-08-20T01:07:29.417Z,17.94
2018-08-20T01:08:29.511Z,17.88
2018-08-20T01:09:29.601Z,17.91
2018-08-20T01:10:29.693Z,17.89
2018-08-20T01:11:29.783Z,17.88
2018-08-20T01:12:29.881Z,17.91
2018-08-20T01:13:29.978Z,17.85
2018-08-20T01:14:30.090Z,17.74
2018-08-20T01:15:30.184Z,17.73
2018-08-20T01:16:30.282Z,17.74
2018-08-20T01:17:30.386Z,17.79
2018-08-20T01:18:30.496Z,17.78
2018-08-20T01:19:30.584Z,17.73
2018-08-20T01:20:30.676Z,17.85
2018-08-20T01:21:30.763Z,17.70
2018-08-20T01:22:30.860Z,17.74
2018-08-20T01:23:30.951Z,17.73
2018-08-20T01:24:31.060Z,17.64
2018-08-20T01:25:31.158Z,17.67
2018-08-20T01:26:31.262Z,17.66
2018-08-20T01:27:31.364Z,17.63
2018-08-20T01:28:31.457Z,17.66
2018-08-20T01:29:31.546Z,17.64
2018-08-20T01:30:31.643Z,17.59
2018-08-20T01:31:31.743Z,17.63
2018-08-20T01:32:31.838Z,17.55
2018-08-20T01:33:31.950Z,17.53
2018-08-20T01:34:32.048Z,17.53
2018-08-20T01:35:32.143Z,17.50
2018-08-20T01:36:32.241Z,17.47
2018-08-20T01:37:32.337Z,17.48
2018-08-20T01:38:32.433Z,17.48
2018-08-20T01:39:32.526Z,17.54
2018-08-20T01:40:32.622Z,17.54
2018-08-20T01:41:32.720Z,17.63
2018-08-20T01:42:32.821Z,17.55
2018-08-20T01:43:32.924Z,17.46
2018-08-20T01:44:33.025Z,17.46
2018-08-20T01:45:33.115Z,17.53
2018-08-20T01:46:33.235Z,17.50
2018-08-20T01:47:33.332Z,17.44
2018-08-20T01:48:33.430Z,17.36
2018-08-20T01:49:33.533Z,17.36
2018-08-20T01:50:33.629Z,17.40
2018-08-20T01:51:33.721Z,17.40
2018-08-20T01:52:33.827Z,17.32
2018-08-20T01:53:33.928Z,17.40
2018-08-20T01:54:34.018Z,17.33
2018-08-20T01:55:34.125Z,17.29
2018-08-20T01:56:34.223Z,17.40
2018-08-20T01:57:34.304Z,17.36
2018-08-20T01:58:34.405Z,17.30
2018-08-20T01:59:34.498Z,17.32
2018-08-20T02:00:34.594Z,17.35
2018-08-20T02:01:34.703Z,17.30
2018-08-20T02:02:34.800Z,17.29
2018-08-20T02:03:34.899Z,17.33
2018-08-20T02:04:35.000Z,17.28
2018-08-20T02:05:35.097Z,17.29
2018-08-20T02:06:35.194Z,17.25
2018-08-20T02:07:35.290Z,17.32
2018-08-20T02:08:35.385Z,17.28
2018-08-20T02:09:35.483Z,17.28
2018-08-20T02:10:35.590Z,17.30
2018-08-20T02:11:35.689Z,17.26
2018-08-20T02:12:35.786Z,17.29
2018-08-20T02:13:35.886Z,17.25
2018-08-20T02:14:35.979Z,17.23
2018-08-20T02:15:36.079Z,17.07
2018-08-20T02:16:36.177Z,17.08
2018-08-20T02:17:36.284Z,17.22
2018-08-20T02:18:36.379Z,17.18
2018-08-20T02:19:36.485Z,17.20
2018-08-20T02:20:36.587Z,17.13
2018-08-20T02:21:36.680Z,17.15
2018-08-20T02:22:36.793Z,17.11
2018-08-20T02:23:36.888Z,17.11
2018-08-20T02:24:36.989Z,17.23
2018-08-20T02:25:37.087Z,17.17
2018-08-20T02:26:37.186Z,17.28
2018-08-20T02:27:37.278Z,17.07
2018-08-20T02:28:37.374Z,17.20
2018-08-20T02:29:37.470Z,17.10
2018-08-20T02:30:37.571Z,17.20
2018-08-20T02:31:37.674Z,17.13
2018-08-20T02:32:37.774Z,17.08
2018-08-20T02:33:37.892Z,17.08
2018-08-20T02:34:37.968Z,17.17
2018-08-20T02:35:38.069Z,17.13
2018-08-20T02:36:38.166Z,17.14
2018-08-20T02:37:38.294Z,17.13
2018-08-20T02:38:38.389Z,17.14
2018-08-20T02:39:38.495Z,17.15
2018-08-20T02:40:38.591Z,17.08
2018-08-20T02:41:38.688Z,17.15
2018-08-20T02:42:38.786Z,17.10
2018-08-20T02:43:38.886Z,17.20
2018-08-20T02:44:38.984Z,17.10
2018-08-20T02:45:39.084Z,17.08
2018-08-20T02:46:39.189Z,17.11
2018-08-20T02:47:39.274Z,17.10
2018-08-20T02:48:39.395Z,17.04
2018-08-20T02:49:39.494Z,17.08
2018-08-20T02:50:39.589Z,17.06
2018-08-20T02:51:39.689Z,17.06
2018-08-20T02:52:39.810Z,17.03
2018-08-20T02:53:39.905Z,17.08
2018-08-20T02:54:40.007Z,17.04
2018-08-20T02:55:40.109Z,17.04
2018-08-20T02:56:40.207Z,17.10
2018-08-20T02:57:40.297Z,17.06
2018-08-20T02:58:40.406Z,16.98
2018-08-20T02:59:40.503Z,16.92
2018-08-20T03:00:40.603Z,17.04
2018-08-20T03:01:40.704Z,17.04
2018-08-20T03:02:40.817Z,16.95
2018-08-20T03:03:40.925Z,16.99
2018-08-20T03:04:41.016Z,16.89
2018-08-20T03:05:41.116Z,16.93
2018-08-20T03:06:41.211Z,16.92
2018-08-20T03:07:41.303Z,16.92
2018-08-20T03:08:41.397Z,16.92
2018-08-20T03:09:41.522Z,16.90
2018-08-20T03:10:41.633Z,16.85
2018-08-20T03:11:41.732Z,16.85
2018-08-20T03:12:41.831Z,16.83
2018-08-20T03:13:41.943Z,16.80
2018-08-20T03:14:42.040Z,16.81
2018-08-20T03:15:42.140Z,16.85
2018-08-20T03:16:42.248Z,16.78
2018-08-20T03:17:42.344Z,16.74
2018-08-20T03:18:42.449Z,16.81
2018-08-20T03:19:42.549Z,16.71
2018-08-20T03:20:42.647Z,16.81
2018-08-20T03:21:42.745Z,16.68
2018-08-20T03:22:42.842Z,16.70
2018-08-20T03:23:42.959Z,16.73
2018-08-20T03:24:43.056Z,16.68
2018-08-20T03:25:43.155Z,16.71
2018-08-20T03:26:43.253Z,16.81
2018-08-20T03:27:43.349Z,16.71
2018-08-20T03:28:43.448Z,16.62
2018-08-20T03:29:43.550Z,16.71
2018-08-20T03:30:43.672Z,16.65
2018-08-20T03:31:43.781Z,16.62
2018-08-20T03:32:43.877Z,16.65
2018-08-20T03:33:43.975Z,16.67
2018-08-20T03:34:44.070Z,16.58
2018-08-20T03:35:44.168Z,16.53
2018-08-20T03:36:44.293Z,16.56
2018-08-20T03:37:44.384Z,16.58
2018-08-20T03:38:44.480Z,16.48
2018-08-20T03:39:44.580Z,16.60
2018-08-20T03:40:44.676Z,16.52
2018-08-20T03:41:44.774Z,16.58
2018-08-20T03:42:44.873Z,16.55
2018-08-20T03:43:44.973Z,16.60
2018-08-20T03:44:45.070Z,16.50
2018-08-20T03:45:45.167Z,16.60
2018-08-20T03:46:45.265Z,16.59
2018-08-20T03:47:45.363Z,16.58
2018-08-20T03:48:45.461Z,16.59
2018-08-20T03:49:45.563Z,16.56
2018-08-20T03:50:45.666Z,16.59
2018-08-20T03:51:45.758Z,16.48
2018-08-20T03:52:45.859Z,16.56
2018-08-20T03:53:45.957Z,16.55
2018-08-20T03:54:46.056Z,16.49
2018-08-20T03:55:46.152Z,16.59
2018-08-20T03:56:46.253Z,16.49
2018-08-20T03:57:46.353Z,16.48
2018-08-20T03:58:46.449Z,16.58
2018-08-20T03:59:46.551Z,16.56
2018-08-20T04:00:46.648Z,16.52
2018-08-20T04:01:46.748Z,16.58
2018-08-20T04:02:46.846Z,16.56
2018-08-20T04:03:46.952Z,16.49
2018-08-20T04:04:47.046Z,16.50
2018-08-20T04:05:47.145Z,16.60
2018-08-20T04:06:47.242Z,16.53
2018-08-20T04:07:47.340Z,16.55
2018-08-20T04:08:47.444Z,16.49
2018-08-20T04:09:47.544Z,16.48
2018-08-20T04:10:47.641Z,16.55
2018-08-20T04:11:47.747Z,16.56
2018-08-20T04:12:47.853Z,16.55
2018-08-20T04:13:47.992Z,16.55
2018-08-20T04:14:48.092Z,16.49
2018-08-20T04:15:48.193Z,16.52
2018-08-20T04:16:48.290Z,16.56
2018-08-20T04:17:48.393Z,16.48
2018-08-20T04:18:48.494Z,16.55
2018-08-20T04:19:48.587Z,16.44
2018-08-20T04:20:48.686Z,16.45
2018-08-20T04:21:48.786Z,16.49
2018-08-20T04:22:48.885Z,16.52
2018-08-20T04:23:48.984Z,16.45
2018-08-20T04:24:49.094Z,16.49
2018-08-20T04:25:49.180Z,16.45
2018-08-20T04:26:49.281Z,16.48
2018-08-20T04:27:49.379Z,16.48
2018-08-20T04:28:49.477Z,16.44
2018-08-20T04:29:49.579Z,16.50
2018-08-20T04:30:49.676Z,16.44
2018-08-20T04:31:49.778Z,16.44
2018-08-20T04:32:49.892Z,16.40
2018-08-20T04:33:49.988Z,16.45
2018-08-20T04:34:50.087Z,16.52
2018-08-20T04:35:50.185Z,16.56
2018-08-20T04:36:50.283Z,16.59
2018-08-20T04:37:50.388Z,16.52
2018-08-20T04:38:50.479Z,16.48
2018-08-20T04:39:50.599Z,16.60
2018-08-20T04:40:50.701Z,16.55
2018-08-20T04:41:50.799Z,16.55
2018-08-20T04:42:50.901Z,16.52
2018-08-20T04:43:51.001Z,16.56
2018-08-20T04:44:51.100Z,16.55
2018-08-20T04:45:51.201Z,16.55
2018-08-20T04:46:51.317Z,16.55
2018-08-20T04:47:51.416Z,16.52
2018-08-20T04:48:51.515Z,16.62
2018-08-20T04:49:51.621Z,16.70
2018-08-20T04:50:51.845Z,16.63
2018-08-20T04:51:51.812Z,16.67
2018-08-20T04:52:51.909Z,16.53
2018-08-20T04:53:52.029Z,16.65
2018-08-20T04:54:52.136Z,16.70
2018-08-20T04:55:52.226Z,16.65
2018-08-20T04:56:52.342Z,16.68
2018-08-20T04:57:52.435Z,16.78
2018-08-20T04:58:52.533Z,16.65
2018-08-20T04:59:52.631Z,16.68
2018-08-20T05:00:52.761Z,16.71
2018-08-20T05:01:52.875Z,16.85
2018-08-20T05:02:52.957Z,16.86
2018-08-20T05:03:53.080Z,16.88
2018-08-20T05:04:53.166Z,16.89
2018-08-20T05:05:53.260Z,16.95
2018-08-20T05:06:53.356Z,16.93
2018-08-20T05:07:53.460Z,16.99
2018-08-20T05:08:53.559Z,17.04
2018-08-20T05:09:53.692Z,16.98
2018-08-20T05:10:53.758Z,17.10
2018-08-20T05:11:53.856Z,17.13
2018-08-20T05:12:53.953Z,17.15
2018-08-20T05:13:54.053Z,17.17
2018-08-20T05:14:54.172Z,17.08
2018-08-20T05:15:54.271Z,17.11
2018-08-20T05:16:54.372Z,17.17
2018-08-20T05:17:54.470Z,17.18
2018-08-20T05:18:54.661Z,17.29
2018-08-20T05:19:54.671Z,17.32
2018-08-20T05:20:54.769Z,17.33
2018-08-20T05:21:54.874Z,17.32
2018-08-20T05:22:54.975Z,17.40
2018-08-20T05:23:55.076Z,17.41
2018-08-20T05:24:55.172Z,17.47
2018-08-20T05:25:55.272Z,17.53
2018-08-20T05:26:55.377Z,17.53
2018-08-20T05:27:55.469Z,17.63
2018-08-20T05:28:55.564Z,17.62
2018-08-20T05:29:55.666Z,17.62
2018-08-20T05:30:55.766Z,17.62
2018-08-20T05:31:55.867Z,17.74
2018-08-20T05:32:55.966Z,17.71
2018-08-20T05:33:56.067Z,17.76
2018-08-20T05:34:56.167Z,17.87
2018-08-20T05:35:56.267Z,17.85
2018-08-20T05:36:56.362Z,17.81
2018-08-20T05:37:56.462Z,17.94
2018-08-20T05:38:56.565Z,18.04
2018-08-20T05:39:56.666Z,18.10
2018-08-20T05:40:56.769Z,18.13
2018-08-20T05:41:56.869Z,18.19
2018-08-20T05:42:56.971Z,18.25
2018-08-20T05:43:57.069Z,18.37
2018-08-20T05:44:57.232Z,18.39
2018-08-20T05:45:57.270Z,18.49
2018-08-20T05:46:57.370Z,18.50
2018-08-20T05:47:57.471Z,18.54
2018-08-20T05:48:57.572Z,18.58
2018-08-20T05:49:57.666Z,18.55
2018-08-20T05:50:57.764Z,18.64
2018-08-20T05:51:57.863Z,18.67
2018-08-20T05:52:57.965Z,18.73
2018-08-20T05:53:58.066Z,18.62
2018-08-20T05:54:58.166Z,18.73
2018-08-20T05:55:58.267Z,18.72
2018-08-20T05:56:58.366Z,18.79
2018-08-20T05:57:58.464Z,18.84
2018-08-20T05:58:58.570Z,18.98
2018-08-20T05:59:58.668Z,18.92
2018-08-20T06:00:58.767Z,19.06
2018-08-20T06:01:58.921Z,18.97
2018-08-20T06:02:59.044Z,19.01
2018-08-20T06:03:59.176Z,19.06
2018-08-20T06:04:59.275Z,19.10
2018-08-20T06:05:59.384Z,19.10
2018-08-20T06:06:59.476Z,18.98
2018-08-20T06:07:59.610Z,19.01
2018-08-20T06:08:59.679Z,19.21
2018-08-20T06:09:59.783Z,19.24
2018-08-20T06:10:59.921Z,19.32
2018-08-20T06:12:00.009Z,19.24
2018-08-20T06:13:00.150Z,19.38
2018-08-20T06:14:00.242Z,19.35
2018-08-20T06:15:00.346Z,19.24
2018-08-20T06:16:00.459Z,19.35
2018-08-20T06:17:00.565Z,19.38
2018-08-20T06:18:00.665Z,19.38
2018-08-20T06:19:00.798Z,19.40
2018-08-20T06:20:00.892Z,19.36
2018-08-20T06:21:00.990Z,19.28
2018-08-20T06:22:01.094Z,19.43
2018-08-20T06:23:01.187Z,19.43
2018-08-20T06:24:01.309Z,19.42
2018-08-20T06:25:01.435Z,19.46
2018-08-20T06:26:01.505Z,19.42
2018-08-20T06:27:01.601Z,19.40
2018-08-20T06:28:01.700Z,19.54
2018-08-20T06:29:01.802Z,19.40
2018-08-20T06:30:01.899Z,19.51
2018-08-20T06:31:01.986Z,19.53
2018-08-20T06:32:02.078Z,19.42
2018-08-20T06:33:02.164Z,19.43
2018-08-20T06:34:02.270Z,19.46
2018-08-20T06:35:02.390Z,19.40
2018-08-20T06:36:02.477Z,19.55
2018-08-20T06:37:02.583Z,19.63
2018-08-20T06:38:02.689Z,19.55
2018-08-20T06:39:02.785Z,19.57
2018-08-20T06:40:02.910Z,19.54
2018-08-20T06:41:03.023Z,19.54
2018-08-20T06:42:03.202Z,19.61
2018-08-20T06:43:03.196Z,19.58
2018-08-20T06:44:03.304Z,19.60
2018-08-20T06:45:03.406Z,19.53
2018-08-20T06:46:03.524Z,19.63
2018-08-20T06:47:03.657Z,19.70
2018-08-20T06:48:03.809Z,19.70
2018-08-20T06:49:03.921Z,19.78
2018-08-20T06:50:04.024Z,19.80
2018-08-20T06:51:04.130Z,19.66
2018-08-20T06:52:04.227Z,19.65
2018-08-20T06:53:04.335Z,19.79
2018-08-20T06:54:04.433Z,19.87
2018-08-20T06:55:04.602Z,19.91
2018-08-20T06:56:04.654Z,20.00
2018-08-20T06:57:04.753Z,20.00
2018-08-20T06:58:04.863Z,20.05
2018-08-20T06:59:04.977Z,20.08
2018-08-20T07:00:05.102Z,20.13
2018-08-20T07:01:05.200Z,20.09
2018-08-20T07:02:05.305Z,20.16
2018-08-20T07:03:05.392Z,20.20
2018-08-20T07:04:05.511Z,20.23
2018-08-20T07:05:05.625Z,20.31
2018-08-20T07:06:05.721Z,20.23
2018-08-20T07:07:05.826Z,20.28
2018-08-20T07:08:05.924Z,20.28
2018-08-20T07:09:06.016Z,20.34
2018-08-20T07:10:06.119Z,20.39
2018-08-20T07:11:06.218Z,20.46
2018-08-20T07:12:06.315Z,20.53
2018-08-20T07:13:06.440Z,20.58
2018-08-20T07:14:06.542Z,20.54
2018-08-20T07:15:06.642Z,20.59
2018-08-20T07:16:06.748Z,20.68
2018-08-20T07:17:06.844Z,20.72
2018-08-20T07:18:06.942Z,20.72
2018-08-20T07:19:07.039Z,20.76
2018-08-20T07:20:07.131Z,20.83
2018-08-20T07:21:07.233Z,20.68
2018-08-20T07:22:07.335Z,20.86
2018-08-20T07:23:07.482Z,20.65
2018-08-20T07:24:07.526Z,20.83
2018-08-20T07:25:07.635Z,20.81
2018-08-20T07:26:07.728Z,20.84
2018-08-20T07:27:07.822Z,20.87
2018-08-20T07:28:07.923Z,20.96
2018-08-20T07:29:08.022Z,20.93
2018-08-20T07:30:08.154Z,20.93
2018-08-20T07:31:08.258Z,20.95
2018-08-20T07:32:08.356Z,21.06
2018-08-20T07:33:08.490Z,21.11
2018-08-20T07:34:08.594Z,21.24
2018-08-20T07:35:08.692Z,21.26
2018-08-20T07:36:08.794Z,21.27
2018-08-20T07:37:08.901Z,21.21
2018-08-20T07:38:08.996Z,21.23
2018-08-20T07:39:09.093Z,21.26
2018-08-20T07:40:09.192Z,21.29
2018-08-20T07:41:09.283Z,21.42
2018-08-20T07:42:09.376Z,21.51
2018-08-20T07:43:09.490Z,21.61
2018-08-20T07:44:09.637Z,21.61
2018-08-20T07:45:09.702Z,21.76
2018-08-20T07:46:09.799Z,21.75
2018-08-20T07:47:09.900Z,21.88
2018-08-20T07:48:10.017Z,21.88
2018-08-20T07:49:10.117Z,22.01
2018-08-20T07:50:10.215Z,22.01
2018-08-20T07:51:10.318Z,22.10
2018-08-20T07:52:10.409Z,22.19
2018-08-20T07:53:10.514Z,22.28
2018-08-20T07:54:10.609Z,22.25
2018-08-20T07:55:10.721Z,22.35
2018-08-20T07:56:10.820Z,22.32
2018-08-20T07:57:10.917Z,22.23
2018-08-20T07:58:11.023Z,22.29
2018-08-20T07:59:11.123Z,22.31
2018-08-20T08:00:11.212Z,22.32
2018-08-20T08:01:11.324Z,22.46
2018-08-20T08:02:11.415Z,22.47
2018-08-20T08:03:11.520Z,22.56
2018-08-20T08:04:11.645Z,22.57
2018-08-20T08:05:11.724Z,22.53
2018-08-20T08:06:11.835Z,22.62
2018-08-20T08:07:11.935Z,22.62
2018-08-20T08:08:12.035Z,22.71
2018-08-20T08:09:12.134Z,22.78
2018-08-20T08:10:12.235Z,22.75
2018-08-20T08:11:12.342Z,22.78
2018-08-20T08:12:12.446Z,22.86
2018-08-20T08:13:12.547Z,22.68
2018-08-20T08:14:12.659Z,22.72
2018-08-20T08:15:12.761Z,22.69
2018-08-20T08:16:12.867Z,22.75
2018-08-20T08:17:12.976Z,22.84
2018-08-20T08:18:13.079Z,22.97
2018-08-20T08:19:13.182Z,22.99
2018-08-20T08:20:13.270Z,23.07
2018-08-20T08:21:13.363Z,22.90
2018-08-20T08:22:13.465Z,23.08
2018-08-20T08:23:13.575Z,23.08
2018-08-20T08:24:13.692Z,23.07
2018-08-20T08:25:13.798Z,23.05
2018-08-20T08:26:13.899Z,23.05
2018-08-20T08:27:14.008Z,23.15
2018-08-20T08:28:14.106Z,23.14
2018-08-20T08:29:14.203Z,23.15
2018-08-20T08:30:14.305Z,23.23
2018-08-20T08:31:14.412Z,23.22
2018-08-20T08:32:14.522Z,23.19
2018-08-20T08:33:14.617Z,23.24
2018-08-20T08:34:14.772Z,23.24
2018-08-20T08:35:14.872Z,23.38
2018-08-20T08:36:14.975Z,23.38
2018-08-20T08:37:15.076Z,23.46
2018-08-20T08:38:15.181Z,23.45
2018-08-20T08:39:15.287Z,23.50
2018-08-20T08:40:15.389Z,23.52
2018-08-20T08:41:15.497Z,23.45
2018-08-20T08:42:15.599Z,23.52
2018-08-20T08:43:15.698Z,23.64
2018-08-20T08:44:15.830Z,23.64
2018-08-20T08:45:15.904Z,23.61
2018-08-20T08:46:16.004Z,23.61
2018-08-20T08:47:16.109Z,23.55
2018-08-20T08:48:16.209Z,23.60
2018-08-20T08:49:16.313Z,23.64
2018-08-20T08:50:16.413Z,23.65
2018-08-20T08:51:16.517Z,23.67
2018-08-20T08:52:16.623Z,23.68
2018-08-20T08:53:16.727Z,23.72
2018-08-20T08:54:16.827Z,23.82
2018-08-20T08:55:16.949Z,23.79
2018-08-20T08:56:17.031Z,23.75
2018-08-20T08:57:17.132Z,23.79
2018-08-20T08:58:17.234Z,23.82
2018-08-20T08:59:17.342Z,23.87
2018-08-20T09:00:17.446Z,23.92
2018-08-20T09:01:17.552Z,23.90
2018-08-20T09:02:17.658Z,23.98
2018-08-20T09:03:17.757Z,24.01
2018-08-20T09:04:17.868Z,24.07
2018-08-20T09:05:17.959Z,24.05
2018-08-20T09:06:18.061Z,24.12
2018-08-20T09:07:18.166Z,24.22
2018-08-20T09:08:18.272Z,24.29
2018-08-20T09:09:18.376Z,24.27
2018-08-20T09:10:18.478Z,24.31
2018-08-20T09:11:18.580Z,24.24
2018-08-20T09:12:18.682Z,24.35
2018-08-20T09:13:18.786Z,24.38
2018-08-20T09:14:18.891Z,24.53
2018-08-20T09:15:18.998Z,24.50
2018-08-20T09:16:19.100Z,24.49
2018-08-20T09:17:19.203Z,24.56
2018-08-20T09:18:19.305Z,24.60
2018-08-20T09:19:19.409Z,24.61
2018-08-20T09:20:19.513Z,24.53
2018-08-20T09:21:19.617Z,24.52
2018-08-20T09:22:19.724Z,24.63
2018-08-20T09:23:19.830Z,24.75
2018-08-20T09:24:19.935Z,24.90
2018-08-20T09:25:20.052Z,24.97
2018-08-20T09:26:20.143Z,25.00
2018-08-20T09:27:20.249Z,25.12
2018-08-20T09:28:20.360Z,25.12
2018-08-20T09:29:20.464Z,25.27
2018-08-20T09:30:20.569Z,25.30
2018-08-20T09:31:20.684Z,25.47
2018-08-20T09:32:20.808Z,25.57
2018-08-20T09:33:20.896Z,25.64
2018-08-20T09:34:21.006Z,25.69
2018-08-20T09:35:21.110Z,25.64
2018-08-20T09:36:21.216Z,25.75
2018-08-20T09:37:21.320Z,25.64
2018-08-20T09:38:21.474Z,25.71
2018-08-20T09:39:21.530Z,25.75
2018-08-20T09:40:21.631Z,25.80
2018-08-20T09:41:21.736Z,25.77
2018-08-20T09:42:21.841Z,25.83
2018-08-20T09:43:21.945Z,25.97
2018-08-20T09:44:22.047Z,25.99
2018-08-20T09:45:22.150Z,25.94
2018-08-20T09:46:22.246Z,25.99
2018-08-20T09:47:22.349Z,26.04
2018-08-20T09:48:22.455Z,26.15
2018-08-20T09:49:22.557Z,26.21
2018-08-20T09:50:22.666Z,26.31
2018-08-20T09:51:22.783Z,26.39
2018-08-20T09:52:22.890Z,26.31
2018-08-20T09:53:23.040Z,26.11
2018-08-20T09:54:23.099Z,25.89
2018-08-20T09:55:23.203Z,25.84
2018-08-20T09:56:23.307Z,25.67
2018-08-20T09:57:23.412Z,25.43
2018-08-20T09:58:23.517Z,25.56
2018-08-20T09:59:23.625Z,25.59
2018-08-20T10:00:23.745Z,25.75
2018-08-20T10:01:23.846Z,25.67
2018-08-20T10:02:23.953Z,25.80
2018-08-20T10:03:24.061Z,25.86
2018-08-20T10:04:24.165Z,26.02
2018-08-20T10:05:24.270Z,26.08
2018-08-20T10:06:24.374Z,26.18
2018-08-20T10:07:24.511Z,26.05
2018-08-20T10:08:24.581Z,26.24
2018-08-20T10:09:24.685Z,26.22
2018-08-20T10:10:24.792Z,26.27
2018-08-20T10:11:24.896Z,26.37
2018-08-20T10:12:25.001Z,26.52
2018-08-20T10:13:25.110Z,26.35
2018-08-20T10:14:25.213Z,26.29
2018-08-20T10:15:25.309Z,26.37
2018-08-20T10:16:25.412Z,26.31
2018-08-20T10:17:25.513Z,26.46
2018-08-20T10:18:25.656Z,26.44
2018-08-20T10:19:25.732Z,26.46
2018-08-20T10:20:25.831Z,26.57
2018-08-20T10:21:25.935Z,26.54
2018-08-20T10:22:26.051Z,26.58
2018-08-20T10:23:26.157Z,26.55
2018-08-20T10:24:26.262Z,26.58
2018-08-20T10:25:26.368Z,26.62
2018-08-20T10:26:26.475Z,26.68
2018-08-20T10:27:26.581Z,26.79
2018-08-20T10:28:26.688Z,26.86
2018-08-20T10:29:26.799Z,26.98
2018-08-20T10:30:26.908Z,26.99
2018-08-20T10:31:27.017Z,27.10
2018-08-20T10:32:27.124Z,27.11
2018-08-20T10:33:27.236Z,27.02
2018-08-20T10:34:27.340Z,27.20
2018-08-20T10:35:27.449Z,27.24
2018-08-20T10:36:27.552Z,27.04
2018-08-20T10:37:27.664Z,27.10
2018-08-20T10:38:27.760Z,27.13
2018-08-20T10:39:27.869Z,27.26
2018-08-20T10:40:27.988Z,27.39
2018-08-20T10:41:28.104Z,27.38
2018-08-20T10:42:28.201Z,27.38
2018-08-20T10:43:28.306Z,27.47
2018-08-20T10:44:28.435Z,27.57
2018-08-20T10:45:28.540Z,27.50
2018-08-20T10:46:28.644Z,27.62
2018-08-20T10:47:28.751Z,27.62
2018-08-20T10:48:28.859Z,27.76
2018-08-20T10:49:28.970Z,27.53
2018-08-20T10:50:29.088Z,27.50
2018-08-20T10:51:29.199Z,27.41
2018-08-20T10:52:29.311Z,27.24
2018-08-20T10:53:29.407Z,27.28
2018-08-20T10:54:29.515Z,27.11
2018-08-20T10:55:29.621Z,27.17
2018-08-20T10:56:29.772Z,27.10
2018-08-20T10:57:29.814Z,27.23
2018-08-20T10:58:29.930Z,27.29
2018-08-20T10:59:30.068Z,27.24
2018-08-20T11:00:30.197Z,27.26
2018-08-20T11:01:30.276Z,27.36
2018-08-20T11:02:30.378Z,27.43
2018-08-20T11:03:30.467Z,27.51
2018-08-20T11:04:30.589Z,27.62
2018-08-20T11:05:30.685Z,27.73
2018-08-20T11:06:30.785Z,27.73
2018-08-20T11:07:30.900Z,27.84
2018-08-20T11:08:30.990Z,27.92
2018-08-20T11:09:31.107Z,27.94
2018-08-20T11:10:31.215Z,28.01
2018-08-20T11:11:31.342Z,28.01
2018-08-20T11:12:31.442Z,28.07
2018-08-20T11:13:31.552Z,28.21
2018-08-20T11:14:31.655Z,28.17
2018-08-20T11:15:31.764Z,28.25
2018-08-20T11:16:31.873Z,28.31
2018-08-20T11:17:31.996Z,28.26
2018-08-20T11:18:32.196Z,28.38
2018-08-20T11:19:32.193Z,28.33
2018-08-20T11:20:32.303Z,28.40
2018-08-20T11:21:32.402Z,28.36
2018-08-20T11:22:32.504Z,28.47
2018-08-20T11:23:32.607Z,28.48
2018-08-20T11:24:32.713Z,28.69
2018-08-20T11:25:32.802Z,28.73
2018-08-20T11:26:32.921Z,28.85
2018-08-20T11:27:33.033Z,28.90
2018-08-20T11:28:33.126Z,28.88
2018-08-20T11:29:33.240Z,29.00
2018-08-20T11:30:33.349Z,29.06
2018-08-20T11:31:33.445Z,29.20
2018-08-20T11:32:33.546Z,29.37
2018-08-20T11:33:33.677Z,29.29
2018-08-20T11:34:33.772Z,29.29
2018-08-20T11:35:33.890Z,29.34
2018-08-20T11:36:34.061Z,29.35
2018-08-20T11:37:34.116Z,29.28
2018-08-20T11:38:34.222Z,29.23
2018-08-20T11:39:34.336Z,29.31
2018-08-20T11:40:34.442Z,29.33
2018-08-20T11:41:34.550Z,29.26
2018-08-20T11:42:34.670Z,29.18
2018-08-20T11:43:34.768Z,29.10
2018-08-20T11:44:34.867Z,29.06
2018-08-20T11:45:34.984Z,29.11
2018-08-20T11:46:35.088Z,29.00
2018-08-20T11:47:35.197Z,28.93
2018-08-20T11:48:35.297Z,28.70
2018-08-20T11:49:35.397Z,28.53
2018-08-20T11:50:35.503Z,28.38
2018-08-20T11:51:35.593Z,28.31
2018-08-20T11:52:35.704Z,28.28
2018-08-20T11:53:35.810Z,28.29
2018-08-20T11:54:35.907Z,28.28
2018-08-20T11:55:36.046Z,28.14
2018-08-20T11:56:36.120Z,28.29
2018-08-20T11:57:36.223Z,28.32
2018-08-20T11:58:36.329Z,28.29
2018-08-20T11:59:36.432Z,28.31
2018-08-20T12:00:36.539Z,28.31
2018-08-20T12:01:36.649Z,28.36
2018-08-20T12:02:36.753Z,28.14
2018-08-20T12:03:36.861Z,28.17
2018-08-20T12:04:36.961Z,28.07
2018-08-20T12:05:37.079Z,27.76
2018-08-20T12:06:37.185Z,27.74
2018-08-20T12:07:37.355Z,27.80
2018-08-20T12:08:37.405Z,27.76
2018-08-20T12:09:37.510Z,27.69
2018-08-20T12:10:37.614Z,27.62
2018-08-20T12:11:37.719Z,27.67
2018-08-20T12:12:37.829Z,27.71
2018-08-20T12:13:37.932Z,27.70
2018-08-20T12:14:38.060Z,27.69
2018-08-20T12:15:38.173Z,27.61
2018-08-20T12:16:38.270Z,27.57
2018-08-20T12:17:38.381Z,27.73
2018-08-20T12:18:38.487Z,27.62
2018-08-20T12:19:38.603Z,27.71
2018-08-20T12:20:38.723Z,27.59
2018-08-20T12:21:38.830Z,27.73
2018-08-20T12:22:38.939Z,27.76
2018-08-20T12:23:39.049Z,27.77
2018-08-20T12:24:39.155Z,27.76
2018-08-20T12:25:39.261Z,27.84
2018-08-20T12:26:39.366Z,27.85
2018-08-20T12:27:39.475Z,27.86
2018-08-20T12:28:39.577Z,27.94
2018-08-20T12:29:39.687Z,27.84
2018-08-20T12:30:39.794Z,27.73
2018-08-20T12:31:39.898Z,27.82
2018-08-20T12:32:40.004Z,27.51
2018-08-20T12:33:40.111Z,27.62
2018-08-20T12:34:40.217Z,27.76
2018-08-20T12:35:40.337Z,27.28
2018-08-20T12:36:40.448Z,27.11
2018-08-20T12:37:40.552Z,27.13
2018-08-20T12:38:40.658Z,26.89
2018-08-20T12:39:40.793Z,26.77
2018-08-20T12:40:40.873Z,26.80
2018-08-20T12:41:40.978Z,26.87
2018-08-20T12:42:41.085Z,26.89
2018-08-20T12:43:41.187Z,27.09
2018-08-20T12:44:41.295Z,27.21
2018-08-20T12:45:41.402Z,27.29
2018-08-20T12:46:41.506Z,27.47
2018-08-20T12:47:41.611Z,27.41
2018-08-20T12:48:41.718Z,27.41
2018-08-20T12:49:41.824Z,27.43
2018-08-20T12:50:41.929Z,27.38
2018-08-20T12:51:42.034Z,27.02
2018-08-20T12:52:42.140Z,27.13
2018-08-20T12:53:42.249Z,27.24